Terminal Aerodrome Forecast
Issued by NWS

Home | Current Version | Previous Version | Text Only | Print | Product List | Glossary On
Versions: 1 2 3 4 5 6 7 8 9 10 11 12 13 14
000
FTUS41 KPBZ 050520
TAFLBE
TAF
KLBE 050520Z 0506/0606 VRB03KT P6SM SCT250
     FM050800 00000KT 3SM BR BKN250
      TEMPO 0510/0512 2SM BR
     FM051300 VRB05KT P6SM BKN250
      AMD NOT SKED=

USA.gov is the U.S. government's official web portal to all federal, state and local government web resources and services.